createdAt,value
2022-09-03T00:02:05.211Z,90.60
2022-09-03T00:07:17.653Z,91.65
2022-09-03T00:12:34.335Z,91.68
2022-09-03T00:17:46.698Z,92.44
2022-09-03T00:22:53.582Z,92.36
2022-09-03T00:27:59.218Z,92.67
2022-09-03T00:33:10.491Z,93.49
2022-09-03T00:38:14.029Z,94.46
2022-09-03T00:43:35.538Z,94.95
2022-09-03T00:49:01.052Z,96.34
2022-09-03T00:54:28.987Z,95.49
2022-09-03T00:59:45.761Z,94.47
2022-09-03T01:04:57.382Z,93.90
2022-09-03T01:10:32.716Z,93.83
2022-09-03T01:15:54.043Z,93.27
2022-09-03T01:21:40.761Z,93.25
2022-09-03T01:27:15.538Z,92.91
2022-09-03T01:32:36.059Z,93.23
2022-09-03T01:37:39.011Z,92.65
2022-09-03T01:43:20.429Z,91.05
2022-09-03T01:48:54.302Z,92.24
2022-09-03T01:54:18.151Z,94.27
2022-09-03T01:59:32.059Z,95.69
2022-09-03T02:04:35.190Z,96.32
2022-09-03T02:09:38.437Z,95.86
2022-09-03T02:14:41.424Z,95.29
2022-09-03T02:19:45.596Z,96.08
2022-09-03T02:24:48.561Z,96.28
2022-09-03T02:29:51.916Z,96.65
2022-09-03T02:34:54.888Z,96.79
2022-09-03T02:39:58.249Z,97.10
2022-09-03T02:45:12.378Z,97.00
2022-09-03T02:50:15.388Z,96.59
2022-09-03T02:55:19.903Z,97.61
2022-09-03T03:00:22.985Z,98.19
2022-09-03T03:05:33.468Z,97.22
2022-09-03T03:10:37.050Z,88.49
2022-09-03T03:15:40.752Z,82.59
2022-09-03T03:20:44.442Z,79.29
2022-09-03T03:25:47.815Z,82.12
2022-09-03T03:30:51.416Z,78.96
2022-09-03T03:35:55.159Z,81.14
2022-09-03T03:40:58.208Z,76.48
2022-09-03T03:46:01.432Z,79.34
2022-09-03T03:51:07.104Z,77.95
2022-09-03T03:56:13.431Z,77.81
2022-09-03T04:01:21.977Z,79.39
2022-09-03T04:06:25.090Z,76.60
2022-09-03T04:11:28.217Z,69.38
2022-09-03T04:16:33.309Z,68.42
2022-09-03T04:21:36.990Z,68.74
2022-09-03T04:26:41.111Z,68.74
2022-09-03T04:32:05.141Z,70.88
2022-09-03T04:37:09.818Z,72.20
2022-09-03T04:42:14.439Z,74.04
2022-09-03T04:47:18.504Z,75.88
2022-09-03T04:52:22.604Z,75.74
2022-09-03T04:57:34.720Z,75.96
2022-09-03T05:02:38.958Z,76.72
2022-09-03T05:07:42.775Z,76.88
2022-09-03T05:12:58.335Z,76.34
2022-09-03T05:18:04.052Z,75.66
2022-09-03T05:23:08.646Z,76.85
2022-09-03T05:28:13.560Z,83.91
2022-09-03T05:33:17.212Z,82.99
2022-09-03T05:38:20.897Z,82.29
2022-09-03T05:43:24.340Z,84.44
2022-09-03T05:48:30.015Z,87.77
2022-09-03T05:53:36.023Z,87.36
2022-09-03T05:58:45.633Z,87.56
2022-09-03T06:03:59.617Z,85.57
2022-09-03T06:09:09.107Z,84.62
2022-09-03T06:14:15.390Z,78.12
2022-09-03T06:19:19.088Z,74.71
2022-09-03T06:24:28.589Z,67.21
2022-09-03T06:29:31.669Z,66.93
2022-09-03T06:34:34.572Z,68.15
2022-09-03T06:39:37.664Z,65.60
2022-09-03T06:44:40.831Z,70.37
2022-09-03T06:49:45.043Z,68.95
2022-09-03T06:54:48.314Z,60.88
2022-09-03T06:59:51.366Z,59.78
2022-09-03T07:04:54.984Z,61.17
2022-09-03T07:09:58.429Z,54.94
2022-09-03T07:15:01.835Z,52.09
2022-09-03T07:20:06.185Z,51.90
2022-09-03T07:25:09.737Z,51.19
2022-09-03T07:30:13.181Z,52.53
2022-09-03T07:35:16.297Z,50.44
2022-09-03T07:40:20.534Z,49.85
2022-09-03T07:45:24.360Z,50.29
2022-09-03T07:50:27.616Z,51.09
2022-09-03T07:55:33.347Z,49.18
2022-09-03T08:00:36.946Z,49.24
2022-09-03T08:05:40.137Z,49.81
2022-09-03T08:10:43.695Z,49.40
2022-09-03T08:15:56.951Z,47.74
2022-09-03T08:21:00.772Z,46.69
2022-09-03T08:26:03.867Z,46.90
2022-09-03T08:31:14.439Z,47.33
2022-09-03T08:36:23.997Z,48.13
2022-09-03T08:41:42.846Z,47.99
2022-09-03T08:46:52.327Z,48.15
2022-09-03T08:51:59.213Z,47.41
2022-09-03T08:57:04.311Z,47.31
2022-09-03T09:02:42.109Z,46.08
2022-09-03T09:08:08.094Z,46.41
2022-09-03T09:13:16.732Z,41.82
2022-09-03T09:18:46.987Z,44.22
2022-09-03T09:23:51.420Z,42.46
2022-09-03T09:29:05.012Z,40.79
2022-09-03T09:34:11.286Z,43.05
2022-09-03T09:39:17.471Z,41.50
2022-09-03T09:44:21.780Z,40.75
2022-09-03T09:49:33.099Z,40.40
2022-09-03T09:54:36.392Z,42.49
2022-09-03T09:59:39.643Z,39.10
2022-09-03T10:04:46.844Z,40.01
2022-09-03T10:10:01.913Z,39.00
2022-09-03T10:15:20.190Z,36.07
2022-09-03T10:20:42.555Z,35.97
2022-09-03T10:26:12.446Z,37.21
2022-09-03T10:31:19.597Z,34.92
2022-09-03T10:36:30.482Z,33.05
2022-09-03T10:41:48.029Z,31.45
2022-09-03T10:46:57.579Z,40.81
2022-09-03T10:52:37.501Z,41.71
2022-09-03T10:58:09.384Z,43.74
2022-09-03T11:03:28.997Z,44.17
2022-09-03T11:08:39.496Z,45.03
2022-09-03T11:13:50.160Z,43.88
2022-09-03T11:19:03.084Z,42.42
2022-09-03T11:24:14.839Z,43.80
2022-09-03T11:29:57.668Z,43.20
2022-09-03T11:35:00.713Z,44.03
2022-09-03T11:40:17.336Z,44.01
2022-09-03T11:45:32.391Z,46.40
2022-09-03T11:55:56.545Z,43.62
2022-09-03T12:01:01.674Z,48.11
2022-09-03T12:06:04.783Z,46.49
2022-09-03T12:11:51.141Z,49.09
2022-09-03T12:17:09.522Z,47.54
2022-09-03T12:22:17.571Z,48.82
2022-09-03T12:27:25.636Z,48.68
2022-09-03T12:32:37.591Z,49.14
2022-09-03T12:48:40.494Z,45.37
2022-09-03T12:53:46.857Z,44.47
2022-09-03T12:59:01.847Z,48.83
2022-09-03T13:04:12.849Z,46.78
2022-09-03T13:09:20.621Z,44.39
2022-09-03T13:14:26.734Z,44.69
2022-09-03T13:19:48.171Z,44.75
2022-09-03T13:25:13.495Z,47.92
2022-09-03T13:30:38.407Z,48.09
2022-09-03T13:36:05.612Z,48.89
2022-09-03T13:41:20.746Z,47.71
2022-09-03T13:46:45.655Z,47.67
2022-09-03T13:52:02.918Z,46.98
2022-09-03T13:57:24.910Z,50.79
2022-09-03T14:02:37.444Z,49.18
2022-09-03T14:07:52.907Z,50.57
2022-09-03T14:13:14.398Z,49.41
2022-09-03T14:18:42.336Z,51.28
2022-09-03T14:24:11.393Z,45.90
2022-09-03T14:29:14.544Z,47.32
2022-09-03T14:34:50.868Z,46.70
2022-09-03T14:40:05.922Z,48.84
2022-09-03T14:45:31.594Z,49.41
2022-09-03T14:50:43.737Z,47.35
2022-09-03T14:56:12.788Z,47.18
2022-09-03T15:01:37.596Z,49.81
2022-09-03T15:06:57.691Z,49.80
2022-09-03T15:12:26.162Z,52.24
2022-09-03T15:17:41.270Z,51.84
2022-09-03T15:22:50.077Z,51.32
2022-09-03T15:28:24.688Z,53.02
2022-09-03T15:33:37.453Z,51.93
2022-09-03T15:38:41.684Z,51.27
2022-09-03T15:43:50.624Z,52.55
2022-09-03T15:49:25.136Z,54.61
2022-09-03T15:54:43.728Z,55.61
2022-09-03T16:00:03.312Z,56.48
2022-09-03T16:05:19.694Z,57.40
2022-09-03T16:10:36.420Z,57.12
2022-09-03T16:15:53.197Z,59.77
2022-09-03T16:21:09.572Z,61.99
2022-09-03T16:26:31.008Z,63.47
2022-09-03T16:31:38.506Z,64.13
2022-09-03T16:36:53.936Z,64.62
2022-09-03T16:41:57.229Z,63.60
2022-09-03T16:47:29.988Z,65.69
2022-09-03T16:52:53.446Z,67.20
2022-09-03T16:58:22.519Z,68.58
2022-09-03T17:03:26.840Z,70.57
2022-09-03T17:09:16.020Z,72.81
2022-09-03T17:14:40.271Z,73.51
2022-09-03T17:20:03.531Z,74.87
2022-09-03T17:25:30.206Z,76.53
2022-09-03T17:30:45.139Z,76.89
2022-09-03T17:36:22.585Z,77.03
2022-09-03T17:41:36.044Z,76.63
2022-09-03T17:47:07.802Z,74.73
2022-09-03T17:52:23.901Z,78.24
2022-09-03T17:57:46.148Z,78.62
2022-09-03T18:02:55.415Z,80.20
2022-09-03T18:08:09.164Z,82.94
2022-09-03T18:13:39.347Z,81.87
2022-09-03T18:18:50.895Z,82.81
2022-09-03T18:24:24.567Z,82.28
2022-09-03T18:29:54.447Z,80.44
2022-09-03T18:35:16.212Z,76.39
2022-09-03T18:40:45.238Z,73.47
2022-09-03T18:52:20.267Z,73.27
2022-09-03T18:58:07.738Z,72.22
2022-09-03T19:03:54.508Z,71.41
2022-09-03T19:09:34.298Z,72.44
2022-09-03T19:15:27.924Z,72.30
2022-09-03T19:20:53.496Z,73.75
2022-09-03T19:26:18.174Z,73.25
2022-09-03T19:32:21.749Z,76.80
2022-09-03T19:38:13.592Z,76.91
2022-09-03T19:43:52.172Z,75.70
2022-09-03T19:49:25.043Z,76.64
2022-09-03T19:54:48.640Z,77.79
2022-09-03T20:00:11.704Z,76.71
2022-09-03T20:05:40.044Z,74.93
2022-09-03T20:10:44.992Z,74.69
2022-09-03T20:16:18.477Z,74.19
2022-09-03T20:21:36.692Z,71.76
2022-09-03T20:26:58.303Z,68.85
2022-09-03T20:32:18.992Z,66.18
2022-09-03T20:37:30.753Z,64.58
2022-09-03T20:43:24.054Z,63.41
2022-09-03T20:49:08.232Z,63.69
2022-09-03T20:54:22.165Z,63.69
2022-09-03T20:59:40.256Z,63.06
2022-09-03T21:05:00.150Z,61.21
2022-09-03T21:10:44.835Z,60.35
2022-09-03T21:16:15.475Z,59.64
2022-09-03T21:21:36.085Z,58.47
2022-09-03T21:26:46.291Z,55.45
2022-09-03T21:31:59.704Z,54.15
2022-09-03T21:37:06.267Z,51.80
2022-09-03T21:42:42.724Z,54.53
2022-09-03T21:47:51.162Z,48.92
2022-09-03T21:53:07.633Z,49.22
2022-09-03T21:58:47.505Z,49.34
2022-09-03T22:03:50.469Z,46.73
2022-09-03T22:09:07.672Z,47.42
2022-09-03T22:14:14.244Z,46.70
2022-09-03T22:19:17.516Z,46.87
2022-09-03T22:24:45.500Z,47.47
2022-09-03T22:29:56.873Z,46.39
2022-09-03T22:35:25.537Z,46.16
2022-09-03T22:40:52.475Z,46.23
2022-09-03T22:46:10.597Z,44.33
2022-09-03T22:51:13.846Z,43.36
2022-09-03T22:56:22.852Z,42.35
2022-09-03T23:01:43.818Z,42.01
2022-09-03T23:06:53.627Z,42.11
2022-09-03T23:12:02.961Z,40.91
2022-09-03T23:17:13.706Z,40.91
2022-09-03T23:22:28.056Z,41.29
2022-09-03T23:27:46.600Z,40.87
2022-09-03T23:32:55.581Z,39.67
2022-09-03T23:38:09.326Z,40.38
2022-09-03T23:43:38.760Z,40.28
2022-09-03T23:49:09.279Z,40.20
2022-09-03T23:54:37.778Z,40.83
2022-09-03T23:59:43.705Z,40.18
